Time;durP1;ratioP1;P1;durP2;ratioP2;P2;SDS_P1;SDS_P2;PMS_P1;PMS_P2;Temp;Humidity;BMP_temperature;BMP_pressure;BME280_temperature;BME280_humidity;BME280_pressure;Samples;Min_cycle;Max_cycle;Signal;HPM_P1;HPM_P2
2023/03/11 00:01:49;;;;;;;10.43;8.57;;;1.20;99.90;;;;;;5019116;28;20234;-68
2023/03/11 00:04:15;;;;;;;8.13;6.95;;;1.20;99.90;;;;;;5013124;28;20176;-75
2023/03/11 00:06:41;;;;;;;9.53;7.40;;;1.20;99.90;;;;;;5011838;28;20207;-69
2023/03/11 00:09:06;;;;;;;9.43;7.30;;;1.20;99.90;;;;;;5012438;28;20184;-75
2023/03/11 00:11:32;;;;;;;9.63;8.13;;;1.20;99.90;;;;;;5013358;28;20251;-69
2023/03/11 00:13:58;;;;;;;8.93;7.40;;;1.30;99.90;;;;;;5023153;28;20207;-75
2023/03/11 00:16:23;;;;;;;9.97;6.70;;;1.30;99.90;;;;;;5032077;28;20199;-70
2023/03/11 00:18:50;;;;;;;8.97;7.10;;;1.20;99.90;;;;;;5023686;28;20184;-69
2023/03/11 00:21:17;;;;;;;8.17;7.43;;;1.20;99.90;;;;;;5013115;28;20192;-70
2023/03/11 00:23:44;;;;;;;12.83;7.40;;;1.20;99.90;;;;;;5013254;28;20399;-69
2023/03/11 00:26:09;;;;;;;7.40;6.70;;;1.20;99.90;;;;;;5023038;28;20477;-69
2023/03/11 00:28:35;;;;;;;12.93;7.63;;;1.30;99.90;;;;;;5026942;28;20816;-74
2023/03/11 00:31:01;;;;;;;7.70;7.00;;;1.30;99.90;;;;;;5013141;28;20172;-75
2023/03/11 00:33:27;;;;;;;8.33;7.17;;;1.20;99.90;;;;;;5013142;28;20179;-75
2023/03/11 00:35:53;;;;;;;8.00;6.90;;;1.20;99.90;;;;;;5011330;28;20459;-69
2023/03/11 00:38:19;;;;;;;10.53;7.70;;;1.10;99.90;;;;;;5022651;28;20438;-69
2023/03/11 00:40:46;;;;;;;7.90;7.13;;;1.10;99.90;;;;;;5012865;28;20196;-75
2023/03/11 00:43:13;;;;;;;10.87;7.60;;;1.10;99.90;;;;;;5012987;28;20168;-71
2023/03/11 00:45:39;;;;;;;9.70;7.13;;;1.20;99.90;;;;;;5012114;28;20473;-75
2023/03/11 00:48:05;;;;;;;7.55;6.88;;;1.20;99.90;;;;;;5012159;28;20499;-73
2023/03/11 00:50:33;;;;;;;8.70;7.57;;;1.10;99.90;;;;;;5013999;28;20191;-74
2023/03/11 00:53:00;;;;;;;7.63;6.82;;;1.00;99.90;;;;;;5012865;28;20267;-69
2023/03/11 00:55:31;;;;;;;13.05;7.15;;;1.00;99.90;;;;;;5011959;28;20196;-69
2023/03/11 00:58:00;;;;;;;9.13;7.40;;;0.90;99.90;;;;;;5011586;28;20541;-70
2023/03/11 01:00:28;;;;;;;6.70;6.10;;;0.90;99.90;;;;;;5015527;28;20466;-69
2023/03/11 01:02:54;;;;;;;9.32;7.13;;;0.90;99.90;;;;;;5023347;28;20176;-69
2023/03/11 01:05:23;;;;;;;8.32;6.53;;;0.90;99.90;;;;;;5015442;28;20194;-75
2023/03/11 01:07:49;;;;;;;6.88;6.28;;;0.90;1.00;;;;;;5016545;28;20168;-69
2023/03/11 01:10:16;;;;;;;10.67;6.73;;;0.90;1.00;;;;;;5014711;28;20649;-69
2023/03/11 01:12:42;;;;;;;7.60;6.90;;;0.90;1.00;;;;;;5015304;28;20425;-75
2023/03/11 01:15:13;;;;;;;6.45;5.90;;;1.00;1.00;;;;;;5014171;28;20978;-69
2023/03/11 01:17:39;;;;;;;9.60;8.20;;;0.90;1.00;;;;;;5016340;28;20181;-75
2023/03/11 01:20:07;;;;;;;8.70;7.90;;;1.00;1.00;;;;;;5015365;28;20945;-75
2023/03/11 01:22:33;;;;;;;8.30;7.35;;;0.90;1.00;;;;;;5016153;28;20612;-69
2023/03/11 01:24:59;;;;;;;8.17;7.47;;;1.00;1.00;;;;;;5015051;28;20203;-76
2023/03/11 01:27:24;;;;;;;8.60;7.63;;;1.00;1.00;;;;;;5031717;28;20186;-75
2023/03/11 01:29:50;;;;;;;9.50;8.30;;;1.00;1.00;;;;;;5021681;28;20187;-69
2023/03/11 01:32:16;;;;;;;7.87;7.07;;;0.90;1.00;;;;;;5016030;28;20634;-70
2023/03/11 01:34:41;;;;;;;8.10;7.40;;;0.90;1.00;;;;;;5015012;28;20184;-75
2023/03/11 01:37:07;;;;;;;10.07;9.00;;;0.90;1.00;;;;;;5015919;28;20549;-69
2023/03/11 01:39:33;;;;;;;7.63;6.83;;;0.90;1.00;;;;;;5019516;28;20192;-69
2023/03/11 01:41:58;;;;;;;9.07;6.90;;;1.00;1.00;;;;;;5015573;28;20219;-69
2023/03/11 01:44:24;;;;;;;9.13;8.00;;;1.00;1.00;;;;;;5015020;28;20173;-75
2023/03/11 01:46:53;;;;;;;12.00;8.47;;;1.00;1.00;;;;;;5015687;28;20271;-69
2023/03/11 01:49:20;;;;;;;11.33;7.83;;;1.00;1.00;;;;;;5014665;28;20176;-75
2023/03/11 01:51:50;;;;;;;9.77;8.50;;;1.10;1.00;;;;;;5016036;28;20497;-69
2023/03/11 01:54:34;;;;;;;9.53;8.63;;;1.10;1.00;;;;;;5015368;28;20411;-74
2023/03/11 01:57:04;;;;;;;9.93;8.80;;;1.10;1.00;;;;;;5014411;28;20491;-70
2023/03/11 01:59:34;;;;;;;9.05;8.15;;;1.10;1.00;;;;;;5014233;28;20529;-69
2023/03/11 02:02:07;;;;;;;20.00;9.00;;;1.00;99.90;;;;;;5016925;28;20651;-76
2023/03/11 02:04:35;;;;;;;8.95;8.05;;;1.10;99.90;;;;;;5034367;28;20655;-70
2023/03/11 02:07:02;;;;;;;9.23;8.00;;;1.00;99.90;;;;;;5031556;28;20238;-69
2023/03/11 02:09:28;;;;;;;9.77;8.10;;;1.10;99.90;;;;;;5013311;28;20423;-75
2023/03/11 02:11:54;;;;;;;14.63;9.60;;;1.10;99.90;;;;;;5015303;28;20449;-75
2023/03/11 02:14:20;;;;;;;11.85;9.10;;;1.10;99.90;;;;;;5012676;28;20230;-70
2023/03/11 02:16:46;;;;;;;11.93;9.13;;;1.10;99.90;;;;;;5014763;28;20204;-69
2023/03/11 02:19:19;;;;;;;14.97;8.73;;;1.10;99.90;;;;;;5013352;28;20442;-74
2023/03/11 02:21:45;;;;;;;10.38;8.40;;;1.10;99.90;;;;;;5015057;28;20462;-69
2023/03/11 02:24:33;;;;;;;10.77;8.43;;;1.10;99.90;;;;;;5019116;28;20645;-75
2023/03/11 02:27:06;;;;;;;11.07;9.70;;;1.20;99.90;;;;;;4995397;28;20428;-69
2023/03/11 02:29:33;;;;;;;12.67;9.83;;;1.20;99.90;;;;;;5002066;28;20855;-74
2023/03/11 02:32:03;;;;;;;11.63;9.13;;;1.10;99.90;;;;;;5014900;28;20462;-75
2023/03/11 02:34:31;;;;;;;11.37;9.37;;;1.10;99.90;;;;;;5013806;28;20446;-76
2023/03/11 02:36:58;;;;;;;12.45;10.82;;;1.10;99.90;;;;;;5024254;28;20454;-69
2023/03/11 02:39:45;;;;;;;13.05;9.40;;;1.10;99.90;;;;;;5026626;28;20192;-76
2023/03/11 02:42:25;;;;;;;10.73;8.95;;;1.10;1.00;;;;;;5014708;28;20175;-69
2023/03/11 02:45:12;;;;;;;13.45;9.82;;;1.10;99.90;;;;;;5013742;28;20168;-75
2023/03/11 02:47:39;;;;;;;13.75;9.90;;;1.10;1.00;;;;;;5013676;28;20163;-75
2023/03/11 02:50:08;;;;;;;12.40;9.63;;;1.00;99.90;;;;;;5028080;28;20260;-75
2023/03/11 02:52:35;;;;;;;13.27;10.68;;;1.00;99.90;;;;;;5034151;28;20887;-73
2023/03/11 02:55:01;;;;;;;15.05;9.45;;;1.00;99.90;;;;;;5033401;28;20313;-75
2023/03/11 02:57:27;;;;;;;14.90;10.53;;;1.00;99.90;;;;;;5022719;28;20180;-75
2023/03/11 02:59:53;;;;;;;12.07;10.13;;;1.00;99.90;;;;;;5045256;28;20462;-71
2023/03/11 03:02:19;;;;;;;9.50;7.77;;;0.90;99.90;;;;;;5014370;28;20407;-70
2023/03/11 03:04:45;;;;;;;18.58;10.07;;;0.90;99.90;;;;;;5013369;28;20199;-75
2023/03/11 03:07:11;;;;;;;10.43;9.20;;;0.90;99.90;;;;;;5015270;28;20813;-71
2023/03/11 03:09:37;;;;;;;15.13;10.20;;;0.90;99.90;;;;;;5026412;28;20184;-70
2023/03/11 03:12:03;;;;;;;13.40;9.87;;;0.80;99.90;;;;;;5013375;28;20532;-69
2023/03/11 03:14:30;;;;;;;14.35;10.90;;;0.80;99.90;;;;;;5013276;28;20402;-73
2023/03/11 03:16:56;;;;;;;9.88;8.85;;;0.80;99.90;;;;;;5013974;28;20254;-69
2023/03/11 03:19:22;;;;;;;10.45;8.95;;;0.80;99.90;;;;;;5012212;28;20207;-69
2023/03/11 03:21:48;;;;;;;12.10;9.87;;;0.80;99.90;;;;;;5013328;28;20235;-70
2023/03/11 03:24:14;;;;;;;13.07;8.93;;;0.80;99.90;;;;;;5013682;28;20160;-69
2023/03/11 03:26:39;;;;;;;15.40;9.80;;;0.90;99.90;;;;;;5012100;28;20200;-75
2023/03/11 03:29:05;;;;;;;11.20;9.23;;;0.90;99.90;;;;;;5013969;28;20176;-75
2023/03/11 03:31:31;;;;;;;11.90;9.60;;;0.90;99.90;;;;;;5012953;28;20238;-74
2023/03/11 03:33:57;;;;;;;11.63;10.40;;;0.90;99.90;;;;;;5033475;28;20395;-71
2023/03/11 03:36:23;;;;;;;11.80;8.83;;;0.80;99.90;;;;;;5032680;28;20192;-75
2023/03/11 03:38:53;;;;;;;11.90;10.30;;;0.80;99.90;;;;;;5032284;28;20171;-75
2023/03/11 03:41:18;;;;;;;12.00;9.27;;;0.80;99.90;;;;;;5014641;28;20222;-75
2023/03/11 03:43:44;;;;;;;13.23;9.47;;;0.70;99.90;;;;;;5015293;28;20183;-75
2023/03/11 03:46:10;;;;;;;10.53;8.70;;;0.70;99.90;;;;;;5032348;28;20201;-70
2023/03/11 03:48:35;;;;;;;13.00;8.83;;;0.60;99.90;;;;;;5033286;28;20628;-74
2023/03/11 03:51:06;;;;;;;14.00;9.57;;;0.60;99.90;;;;;;5016747;28;20238;-69
2023/03/11 03:53:35;;;;;;;10.77;8.20;;;0.50;99.90;;;;;;5013510;28;20188;-75
2023/03/11 03:56:06;;;;;;;11.52;8.77;;;0.50;99.90;;;;;;5015863;28;20286;-70
2023/03/11 03:58:32;;;;;;;13.57;9.45;;;0.40;99.90;;;;;;5032862;28;20184;-74
2023/03/11 04:00:59;;;;;;;16.55;9.98;;;0.40;99.90;;;;;;5018095;28;20207;-69
2023/03/11 04:03:26;;;;;;;13.98;9.65;;;0.30;99.90;;;;;;5013432;28;20165;-69
2023/03/11 04:05:51;;;;;;;10.02;8.88;;;0.30;99.90;;;;;;5012534;28;20242;-72
2023/03/11 04:08:17;;;;;;;15.13;10.63;;;0.40;99.90;;;;;;5011180;28;20177;-74
2023/03/11 04:10:43;;;;;;;11.20;8.93;;;0.40;99.90;;;;;;5010950;28;20646;-69
2023/03/11 04:13:09;;;;;;;11.63;9.02;;;0.40;99.90;;;;;;5013793;28;20262;-75
2023/03/11 04:15:38;;;;;;;11.60;9.00;;;0.40;99.90;;;;;;5012066;28;20957;-75
2023/03/11 04:18:04;;;;;;;9.52;8.40;;;0.30;99.90;;;;;;5012547;28;20207;-75
2023/03/11 04:20:30;;;;;;;11.55;8.68;;;0.40;99.90;;;;;;5011551;28;20202;-69
2023/03/11 04:22:56;;;;;;;11.80;8.37;;;0.40;99.90;;;;;;5013222;28;20239;-70
2023/03/11 04:25:21;;;;;;;11.87;9.17;;;0.40;99.90;;;;;;5012202;28;20928;-75
2023/03/11 04:27:48;;;;;;;9.97;8.87;;;0.30;99.90;;;;;;5013385;28;20168;-74
2023/03/11 04:30:15;;;;;;;12.88;8.27;;;0.30;99.90;;;;;;5017304;28;20176;-69
2023/03/11 04:32:40;;;;;;;10.65;9.45;;;0.30;99.90;;;;;;5033949;28;20204;-69
2023/03/11 04:35:07;;;;;;;9.70;8.50;;;0.30;99.90;;;;;;5035850;28;20611;-75
2023/03/11 04:37:32;;;;;;;11.55;9.90;;;0.30;99.90;;;;;;5035089;28;20183;-69
2023/03/11 04:39:58;;;;;;;11.43;8.60;;;0.20;99.90;;;;;;5030888;28;20206;-70
2023/03/11 04:42:24;;;;;;;10.23;8.67;;;0.10;99.90;;;;;;5025334;28;20441;-75
2023/03/11 04:44:49;;;;;;;10.67;8.07;;;0.10;99.90;;;;;;5035657;28;20164;-69
2023/03/11 04:47:16;;;;;;;13.40;8.90;;;0.10;99.90;;;;;;5020394;28;20183;-75
2023/03/11 04:49:42;;;;;;;11.00;8.00;;;0.10;99.90;;;;;;5015937;28;20223;-74
2023/03/11 04:52:08;;;;;;;10.90;8.30;;;0.00;99.90;;;;;;5016629;28;20176;-70
2023/03/11 04:54:33;;;;;;;12.60;8.60;;;0.00;99.90;;;;;;5021938;28;20188;-73
2023/03/11 04:56:59;;;;;;;11.63;8.60;;;-0.10;99.90;;;;;;5035192;28;20195;-74
2023/03/11 04:59:26;;;;;;;13.70;8.33;;;-0.10;99.90;;;;;;5036416;28;20187;-68
2023/03/11 05:01:52;;;;;;;10.02;8.10;;;-0.10;99.90;;;;;;5016429;28;20203;-70
2023/03/11 05:04:18;;;;;;;11.45;8.40;;;-0.10;99.90;;;;;;5015917;28;20679;-76
2023/03/11 05:06:43;;;;;;;11.27;7.60;;;-0.10;99.90;;;;;;5015160;28;20204;-75
2023/03/11 05:09:09;;;;;;;8.43;7.60;;;-0.10;99.90;;;;;;5015135;28;20184;-75
2023/03/11 05:11:35;;;;;;;10.10;7.80;;;-0.10;99.90;;;;;;5014375;28;20584;-69
2023/03/11 05:14:00;;;;;;;8.77;7.90;;;-0.10;99.90;;;;;;5015523;28;20192;-76
2023/03/11 05:16:26;;;;;;;16.00;8.73;;;-0.20;99.90;;;;;;5018104;28;20254;-74
2023/03/11 05:18:52;;;;;;;14.30;9.83;;;-0.20;99.90;;;;;;5036047;28;20178;-69
2023/03/11 05:21:17;;;;;;;9.40;7.00;;;-0.30;99.90;;;;;;5017825;28;20279;-69
2023/03/11 05:23:44;;;;;;;12.40;8.63;;;-0.40;99.90;;;;;;5016269;28;20537;-74
2023/03/11 05:26:10;;;;;;;10.35;7.40;;;-0.40;99.90;;;;;;5015166;28;20212;-69
2023/03/11 05:28:35;;;;;;;13.50;8.40;;;-0.40;99.90;;;;;;5017904;28;20180;-74
2023/03/11 05:31:01;;;;;;;11.27;8.90;;;-0.40;99.90;;;;;;5020085;28;20195;-69
2023/03/11 05:33:33;;;;;;;10.00;8.07;;;-0.40;99.90;;;;;;5016095;28;20175;-68
2023/03/11 05:36:09;;;;;;;11.52;7.95;;;-0.30;99.90;;;;;;5014977;28;20195;-69
2023/03/11 05:38:36;;;;;;;12.73;9.02;;;-0.30;99.90;;;;;;5015902;28;20187;-74
2023/03/11 05:41:01;;;;;;;11.73;8.40;;;-0.30;99.90;;;;;;5022653;28;20204;-69
2023/03/11 05:43:27;;;;;;;12.20;7.77;;;-0.30;99.90;;;;;;5035403;28;20628;-72
2023/03/11 05:45:53;;;;;;;8.67;7.23;;;-0.30;99.90;;;;;;5033589;28;20203;-70
2023/03/11 05:48:18;;;;;;;10.23;7.70;;;-0.30;99.90;;;;;;5035520;28;20221;-74
2023/03/11 05:50:44;;;;;;;10.60;8.17;;;-0.30;99.90;;;;;;5019959;28;20195;-74
2023/03/11 05:53:10;;;;;;;15.50;7.70;;;-0.30;99.90;;;;;;5021306;28;20262;-73
2023/03/11 05:55:35;;;;;;;14.30;9.03;;;-0.30;99.90;;;;;;5011661;28;20196;-68
2023/03/11 05:58:01;;;;;;;14.37;8.07;;;-0.40;99.90;;;;;;5014535;28;20629;-74
2023/03/11 06:00:28;;;;;;;11.00;8.10;;;-0.40;99.90;;;;;;5016070;28;20204;-68
2023/03/11 06:02:54;;;;;;;12.60;8.70;;;-0.40;99.90;;;;;;5035228;28;20164;-68
2023/03/11 06:05:20;;;;;;;8.75;6.88;;;-0.40;99.90;;;;;;5023239;28;20565;-74
2023/03/11 06:07:46;;;;;;;10.30;7.87;;;-0.40;99.90;;;;;;5014864;28;20176;-74
2023/03/11 06:10:12;;;;;;;11.48;7.75;;;-0.50;99.90;;;;;;5013646;28;20522;-72
2023/03/11 06:12:38;;;;;;;10.30;7.65;;;-0.40;99.90;;;;;;5011721;28;20245;-74
2023/03/11 06:15:06;;;;;;;10.07;7.87;;;-0.40;99.90;;;;;;5014339;28;20681;-74
2023/03/11 06:17:31;;;;;;;11.55;8.77;;;-0.50;99.90;;;;;;5025976;28;20465;-75
2023/03/11 06:19:57;;;;;;;12.13;8.00;;;-0.40;99.90;;;;;;5015903;28;20180;-74
2023/03/11 06:22:23;;;;;;;9.93;7.87;;;-0.40;99.90;;;;;;5014275;28;20176;-70
2023/03/11 06:24:48;;;;;;;9.47;7.87;;;-0.50;99.90;;;;;;5033094;28;20172;-68
2023/03/11 06:27:14;;;;;;;9.50;6.67;;;-0.40;99.90;;;;;;5034792;28;20183;-69
2023/03/11 06:29:40;;;;;;;8.53;7.80;;;-0.40;99.90;;;;;;5032288;28;20195;-74
2023/03/11 06:32:06;;;;;;;8.67;7.10;;;-0.40;99.90;;;;;;5014926;28;20180;-67
2023/03/11 06:34:31;;;;;;;9.63;7.60;;;-0.40;99.90;;;;;;5014209;28;20314;-73
2023/03/11 06:36:58;;;;;;;11.90;7.90;;;-0.40;99.90;;;;;;5019078;28;20486;-74
2023/03/11 06:39:24;;;;;;;11.43;8.93;;;-0.40;99.90;;;;;;5014673;28;20573;-73
2023/03/11 06:41:50;;;;;;;10.33;8.53;;;-0.30;99.90;;;;;;5013809;28;20290;-68
2023/03/11 06:44:16;;;;;;;6.87;6.10;;;-0.30;99.90;;;;;;5014455;28;20243;-75
2023/03/11 06:46:42;;;;;;;11.03;7.47;;;-0.50;99.90;;;;;;5013859;28;20176;-74
2023/03/11 06:49:07;;;;;;;13.20;8.23;;;-0.50;99.90;;;;;;5034480;28;20406;-74
2023/03/11 06:51:33;;;;;;;13.27;8.63;;;-0.40;99.90;;;;;;5016055;28;20430;-75
2023/03/11 06:53:59;;;;;;;11.18;7.60;;;-0.40;99.90;;;;;;5014444;28;20187;-75
2023/03/11 06:56:25;;;;;;;10.87;8.23;;;-0.40;99.90;;;;;;5013592;28;20557;-68
2023/03/11 06:58:52;;;;;;;9.83;6.97;;;-0.40;99.90;;;;;;5013239;28;20427;-67
2023/03/11 07:01:20;;;;;;;8.70;6.90;;;-0.30;99.90;;;;;;5012762;28;20207;-68
2023/03/11 07:03:47;;;;;;;10.60;6.68;;;-0.20;99.90;;;;;;5013330;28;20237;-68
2023/03/11 07:06:15;;;;;;;11.43;7.40;;;-0.20;99.90;;;;;;5013206;28;20215;-75
2023/03/11 07:08:41;;;;;;;9.52;6.70;;;-0.20;99.90;;;;;;5014239;28;20165;-74
2023/03/11 07:11:13;;;;;;;7.40;6.60;;;-0.20;99.90;;;;;;5015449;28;20186;-68
2023/03/11 07:13:39;;;;;;;9.70;6.47;;;-0.10;99.90;;;;;;5033991;28;20764;-68
2023/03/11 07:16:11;;;;;;;7.27;5.87;;;-0.10;99.90;;;;;;5027674;28;20258;-69
2023/03/11 07:18:37;;;;;;;10.73;6.20;;;-0.10;99.90;;;;;;5013973;28;20577;-72
2023/03/11 07:21:05;;;;;;;9.17;5.83;;;-0.10;99.90;;;;;;5013445;28;20208;-67
2023/03/11 07:23:32;;;;;;;6.32;5.32;;;-0.10;99.90;;;;;;5016689;28;20248;-74
2023/03/11 07:25:58;;;;;;;10.45;8.70;;;0.00;99.90;;;;;;5031640;28;20242;-68
2023/03/11 07:28:25;;;;;;;5.88;5.35;;;0.00;99.90;;;;;;5033735;28;20168;-73
2023/03/11 07:30:52;;;;;;;8.32;5.50;;;0.10;99.90;;;;;;5021187;28;20176;-69
2023/03/11 07:33:18;;;;;;;7.00;5.90;;;0.10;99.90;;;;;;5029898;28;20258;-68
2023/03/11 07:35:44;;;;;;;12.68;6.38;;;0.20;99.90;;;;;;5032485;28;20191;-67
2023/03/11 07:38:09;;;;;;;5.60;5.17;;;0.20;99.90;;;;;;5033414;28;20590;-67
2023/03/11 07:40:35;;;;;;;6.20;5.60;;;0.40;99.90;;;;;;5025423;28;20459;-72
2023/03/11 07:43:01;;;;;;;6.80;5.60;;;0.40;99.90;;;;;;5026921;28;20541;-74
2023/03/11 07:45:27;;;;;;;5.07;4.17;;;0.40;99.90;;;;;;5012618;28;20214;-73
2023/03/11 07:47:52;;;;;;;5.57;4.77;;;0.40;99.90;;;;;;5012689;28;20170;-70
2023/03/11 07:50:21;;;;;;;6.90;6.20;;;0.50;99.90;;;;;;5011501;28;20183;-68
2023/03/11 07:52:47;;;;;;;6.82;4.85;;;0.50;99.90;;;;;;5012370;28;20276;-73
2023/03/11 07:55:13;;;;;;;5.53;4.97;;;0.60;99.90;;;;;;5012379;28;20270;-70
2023/03/11 07:57:39;;;;;;;5.68;5.15;;;0.60;99.90;;;;;;5013553;28;20164;-73
2023/03/11 08:00:05;;;;;;;5.90;4.40;;;0.70;99.90;;;;;;5011908;28;20699;-73
2023/03/11 08:02:31;;;;;;;6.75;5.10;;;0.80;99.90;;;;;;5013325;28;20191;-73
2023/03/11 08:04:57;;;;;;;4.73;4.40;;;0.90;99.90;;;;;;5010598;28;20188;-74
2023/03/11 08:07:22;;;;;;;6.63;4.53;;;0.90;99.90;;;;;;5013729;28;20176;-73
2023/03/11 08:09:48;;;;;;;5.07;4.60;;;1.00;99.90;;;;;;5013547;28;20645;-73
2023/03/11 08:12:15;;;;;;;5.97;4.80;;;1.10;99.90;;;;;;5012979;28;20757;-73
2023/03/11 08:14:42;;;;;;;5.10;4.40;;;1.20;98.30;;;;;;5011307;28;20267;-68
2023/03/11 08:17:09;;;;;;;4.67;4.20;;;1.20;88.70;;;;;;5010635;28;20561;-68
2023/03/11 08:19:35;;;;;;;6.75;4.70;;;1.30;88.70;;;;;;5013334;28;20435;-68
2023/03/11 08:22:02;;;;;;;4.37;3.97;;;1.30;68.10;;;;;;5018770;28;20242;-68
2023/03/11 08:24:27;;;;;;;5.17;4.40;;;1.40;63.10;;;;;;5027547;28;20427;-74
2023/03/11 08:26:54;;;;;;;3.90;3.60;;;1.50;62.10;;;;;;5012334;28;20583;-74
2023/03/11 08:29:20;;;;;;;3.77;3.47;;;1.60;50.50;;;;;;5012826;28;20282;-68
2023/03/11 08:31:45;;;;;;;4.03;3.30;;;1.70;26.10;;;;;;5014366;28;20521;-68
2023/03/11 08:34:12;;;;;;;2.70;2.60;;;1.70;18.30;;;;;;5032495;28;20398;-68
2023/03/11 08:36:38;;;;;;;4.30;3.70;;;1.80;9.50;;;;;;5032026;28;20190;-74
2023/03/11 08:39:03;;;;;;;4.10;3.60;;;1.90;12.80;;;;;;5032915;28;20501;-68
2023/03/11 08:41:29;;;;;;;5.67;3.50;;;2.00;8.10;;;;;;5021221;28;20258;-74
2023/03/11 08:43:55;;;;;;;4.10;3.20;;;2.00;1.00;;;;;;5011004;28;20268;-69
2023/03/11 08:46:24;;;;;;;3.97;3.20;;;2.20;1.00;;;;;;5011135;28;20203;-69
2023/03/11 08:48:50;;;;;;;3.00;2.80;;;2.30;1.00;;;;;;5011673;28;20180;-68
2023/03/11 08:51:16;;;;;;;2.70;2.50;;;2.40;1.00;;;;;;5010803;28;20437;-70
2023/03/11 08:53:42;;;;;;;3.33;3.13;;;2.50;1.00;;;;;;5012584;28;20421;-74
2023/03/11 08:56:08;;;;;;;3.70;3.40;;;2.60;1.00;;;;;;5031683;28;20266;-68
2023/03/11 08:58:33;;;;;;;3.90;3.70;;;2.70;1.00;;;;;;5032476;28;20190;-74
2023/03/11 09:00:59;;;;;;;3.30;3.10;;;2.80;1.00;;;;;;5028357;28;20464;-68
2023/03/11 09:03:25;;;;;;;3.33;3.03;;;2.90;1.00;;;;;;5017177;28;20933;-74
2023/03/11 09:05:58;;;;;;;3.87;3.37;;;3.00;1.00;;;;;;5031508;28;20813;-70
2023/03/11 09:08:24;;;;;;;3.40;3.10;;;3.20;1.00;;;;;;5032612;28;20167;-69
2023/03/11 09:10:50;;;;;;;3.00;2.80;;;3.30;1.00;;;;;;5029285;28;20406;-74
2023/03/11 09:13:16;;;;;;;8.33;3.30;;;3.40;1.00;;;;;;5015659;28;20514;-69
2023/03/11 09:15:41;;;;;;;3.23;2.97;;;3.50;1.00;;;;;;5031717;28;20184;-67
2023/03/11 09:18:14;;;;;;;2.90;2.70;;;3.50;1.00;;;;;;5029717;28;20283;-73
2023/03/11 09:20:40;;;;;;;4.17;3.30;;;3.60;1.00;;;;;;5019322;28;20202;-74
2023/03/11 09:23:06;;;;;;;6.10;2.80;;;3.80;1.00;;;;;;5014231;28;20533;-69
2023/03/11 09:25:32;;;;;;;3.03;2.83;;;4.10;1.00;;;;;;5015208;28;20900;-70
2023/03/11 09:27:57;;;;;;;3.67;3.37;;;4.40;1.00;;;;;;5015611;28;20541;-68
2023/03/11 09:30:23;;;;;;;2.90;2.70;;;4.50;1.00;;;;;;5036117;28;20200;-66
2023/03/11 09:32:49;;;;;;;3.83;2.83;;;4.60;1.00;;;;;;5017669;28;20180;-67
2023/03/11 09:35:14;;;;;;;3.30;3.10;;;4.70;1.00;;;;;;5014044;28;20223;-69
2023/03/11 09:37:40;;;;;;;3.17;2.87;;;5.00;1.00;;;;;;5016101;28;20173;-71
2023/03/11 09:40:07;;;;;;;2.30;2.20;;;5.10;1.00;;;;;;5015989;28;20181;-71
2023/03/11 09:42:56;;;;;;;6.40;2.57;;;5.10;1.00;;;;;;5020515;28;20219;-66
2023/03/11 09:45:29;;;;;;;5.30;2.77;;;5.20;1.00;;;;;;5014832;28;20430;-67
2023/03/11 09:48:17;;;;;;;6.50;2.87;;;5.40;1.00;;;;;;5015169;28;20524;-67
2023/03/11 09:50:42;;;;;;;3.10;2.87;;;5.80;1.00;;;;;;5015715;28;20406;-72
2023/03/11 09:53:35;;;;;;;1.97;1.87;;;6.10;1.00;;;;;;5024963;28;20437;-67
2023/03/11 09:56:06;;;;;;;3.03;2.77;;;6.20;1.00;;;;;;5026964;28;20201;-72
2023/03/11 09:58:49;;;;;;;4.30;2.93;;;6.30;1.00;;;;;;4995925;28;20762;-68
2023/03/11 10:01:36;;;;;;;2.80;2.53;;;6.60;1.00;;;;;;4997874;28;20551;-72
2023/03/11 10:04:29;;;;;;;3.17;2.77;;;6.50;1.00;;;;;;5014234;28;20431;-67
2023/03/11 10:06:55;;;;;;;3.13;2.83;;;6.40;1.00;;;;;;5015210;28;20427;-67
2023/03/11 10:09:51;;;;;;;4.93;2.23;;;6.50;1.00;;;;;;5010331;28;20427;-72
2023/03/11 10:12:37;;;;;;;4.00;2.40;;;6.70;1.00;;;;;;5014682;28;20697;-72
2023/03/11 10:15:12;;;;;;;6.17;2.40;;;6.60;1.00;;;;;;5031960;28;20452;-67
2023/03/11 10:17:49;;;;;;;4.07;3.07;;;6.70;1.00;;;;;;5033480;28;20463;-66
2023/03/11 10:20:42;;;;;;;4.03;3.10;;;6.90;1.00;;;;;;5012867;28;20516;-66
2023/03/11 10:23:35;;;;;;;2.90;2.10;;;7.10;1.00;;;;;;5022674;28;20428;-66
2023/03/11 10:26:16;;;;;;;7.07;2.20;;;7.40;1.00;;;;;;5033948;28;20430;-66
2023/03/11 10:28:50;;;;;;;2.50;2.30;;;7.70;1.00;;;;;;5033830;28;20410;-65
2023/03/11 10:31:37;;;;;;;2.57;2.37;;;8.00;1.00;;;;;;5027216;28;20422;-75
2023/03/11 10:34:43;;;;;;;3.03;2.80;;;8.50;1.00;;;;;;5022793;28;20433;-73
2023/03/11 10:37:25;;;;;;;4.67;3.80;;;8.70;1.00;;;;;;5033500;28;20442;-65
2023/03/11 10:39:51;;;;;;;5.63;2.17;;;8.50;1.00;;;;;;5034757;28;20449;-70
2023/03/11 10:42:27;;;;;;;3.47;2.07;;;8.30;1.00;;;;;;5022208;28;20485;-71
2023/03/11 10:44:53;;;;;;;2.60;2.30;;;8.20;1.00;;;;;;5009503;28;20420;-72
2023/03/11 10:47:22;;;;;;;1.77;1.67;;;8.10;1.00;;;;;;4995051;28;20964;-73
2023/03/11 10:49:48;;;;;;;7.23;2.30;;;8.30;1.00;;;;;;4995118;28;20419;-70
2023/03/11 10:52:14;;;;;;;2.30;1.80;;;8.60;1.00;;;;;;5004031;28;20780;-71
2023/03/11 10:54:45;;;;;;;2.90;1.73;;;8.80;1.00;;;;;;5011990;28;20525;-70
2023/03/11 10:57:32;;;;;;;2.13;2.03;;;8.60;1.00;;;;;;5014578;28;20183;-72
2023/03/11 11:00:00;;;;;;;1.80;1.70;;;8.10;1.00;;;;;;5013535;28;20451;-68
2023/03/11 11:02:32;;;;;;;3.00;2.40;;;7.30;1.00;;;;;;5012615;28;20467;-69
2023/03/11 11:05:06;;;;;;;4.20;2.30;;;6.50;1.00;;;;;;5012196;28;20522;-65
2023/03/11 11:07:39;;;;;;;3.33;3.03;;;6.60;1.00;;;;;;5021144;28;20475;-66
2023/03/11 11:10:13;;;;;;;6.43;2.33;;;7.00;1.00;;;;;;5011247;28;20419;-66
2023/03/11 11:12:59;;;;;;;9.60;2.77;;;7.80;1.00;;;;;;5012481;28;20865;-66
2023/03/11 11:15:31;;;;;;;4.10;2.10;;;7.90;1.00;;;;;;5013132;28;20462;-66
2023/03/11 11:18:23;;;;;;;3.00;2.70;;;7.80;1.00;;;;;;5013499;28;20415;-66
2023/03/11 11:21:01;;;;;;;3.70;2.13;;;7.80;1.00;;;;;;5031686;28;20954;-67
2023/03/11 11:23:47;;;;;;;2.80;2.23;;;7.90;1.00;;;;;;5013344;28;20457;-66
2023/03/11 11:26:33;;;;;;;2.20;2.10;;;7.70;1.00;;;;;;5012959;28;20506;-67
2023/03/11 11:29:13;;;;;;;1.73;1.63;;;6.90;1.00;;;;;;5010968;28;20413;-69
2023/03/11 11:31:42;;;;;;;2.50;1.80;;;6.60;1.00;;;;;;5025541;28;20434;-66
2023/03/11 11:34:34;;;;;;;2.77;2.20;;;6.50;1.00;;;;;;5013542;28;20414;-68
2023/03/11 11:37:04;;;;;;;2.43;2.20;;;6.50;1.00;;;;;;5011308;28;20443;-67
2023/03/11 11:39:44;;;;;;;3.90;2.60;;;6.60;1.00;;;;;;5012685;28;20435;-68
2023/03/11 11:42:12;;;;;;;2.00;1.80;;;6.90;1.00;;;;;;5011534;28;20469;-67
2023/03/11 11:44:39;;;;;;;3.13;2.73;;;7.20;1.00;;;;;;5011839;28;20593;-68
2023/03/11 11:47:41;;;;;;;2.30;1.70;;;7.50;1.00;;;;;;5013640;28;20578;-67
2023/03/11 11:50:22;;;;;;;2.13;1.90;;;7.80;1.00;;;;;;5014847;28;20541;-68
2023/03/11 11:52:57;;;;;;;1.50;1.40;;;8.10;1.00;;;;;;5018786;28;20434;-67
2023/03/11 11:55:28;;;;;;;5.47;1.27;;;8.10;1.00;;;;;;5010951;28;20461;-68
2023/03/11 11:57:55;;;;;;;1.47;1.37;;;8.30;1.00;;;;;;5013496;28;20395;-70
2023/03/11 12:00:28;;;;;;;1.50;1.40;;;8.30;1.00;;;;;;5012405;28;20442;-68
2023/03/11 12:03:34;;;;;;;1.87;1.13;;;8.20;1.00;;;;;;5012836;28;20463;-70
2023/03/11 12:06:08;;;;;;;1.53;1.43;;;8.30;1.00;;;;;;5044142;28;20471;-69
2023/03/11 12:08:51;;;;;;;2.53;1.27;;;8.30;1.00;;;;;;5013155;28;20399;-71
2023/03/11 12:11:48;;;;;;;2.90;1.93;;;8.40;1.00;;;;;;4993684;28;20423;-69
2023/03/11 12:14:29;;;;;;;2.37;1.60;;;8.80;1.00;;;;;;5008182;28;20434;-70
2023/03/11 12:17:01;;;;;;;1.27;1.17;;;9.40;1.00;;;;;;5013373;28;20438;-68
2023/03/11 12:19:55;;;;;;;2.73;1.50;;;9.50;1.00;;;;;;5013241;28;20415;-67
2023/03/11 12:22:20;;;;;;;2.40;1.40;;;9.30;1.00;;;;;;5014319;28;20482;-72
2023/03/11 12:24:56;;;;;;;3.20;1.50;;;9.70;1.00;;;;;;5042634;28;20468;-72
2023/03/11 12:27:45;;;;;;;2.47;1.50;;;10.00;1.00;;;;;;5012715;28;20202;-67
2023/03/11 12:30:20;;;;;;;3.63;1.73;;;9.70;1.00;;;;;;5012749;28;20397;-67
2023/03/11 12:32:55;;;;;;;3.73;1.67;;;10.00;1.00;;;;;;5006003;28;20481;-68
2023/03/11 12:35:30;;;;;;;1.77;1.50;;;10.40;1.00;;;;;;5012159;28;20405;-71
2023/03/11 12:38:14;;;;;;;1.80;1.30;;;11.40;1.00;;;;;;5013132;28;20764;-69
2023/03/11 12:40:55;;;;;;;2.10;2.00;;;12.20;1.00;;;;;;5011206;28;20463;-65
2023/03/11 12:43:24;;;;;;;1.13;1.03;;;12.60;1.00;;;;;;5012217;28;20764;-72
2023/03/11 12:45:51;;;;;;;1.50;1.23;;;13.00;1.00;;;;;;5012043;28;20402;-65
2023/03/11 12:48:26;;;;;;;3.10;1.40;;;13.30;1.00;;;;;;5011963;28;20462;-69
2023/03/11 12:50:53;;;;;;;1.30;1.00;;;13.50;1.00;;;;;;5007592;28;20955;-71
2023/03/11 12:53:19;;;;;;;1.93;1.50;;;13.60;1.00;;;;;;5011795;28;20434;-66
2023/03/11 12:56:12;;;;;;;5.30;1.80;;;13.70;1.00;;;;;;5047970;28;20477;-66
2023/03/11 12:58:38;;;;;;;5.23;2.03;;;12.60;1.00;;;;;;5016010;28;20940;-68
2023/03/11 13:01:12;;;;;;;3.73;3.40;;;10.80;1.00;;;;;;5036473;28;20453;-68
2023/03/11 13:04:30;;;;;;;3.13;1.40;;;10.10;1.00;;;;;;5040201;28;20183;-68
2023/03/11 13:07:20;;;;;;;3.33;1.90;;;9.20;1.00;;;;;;5015526;28;20414;-72
2023/03/11 13:10:10;;;;;;;1.87;1.77;;;8.50;1.00;;;;;;5016638;28;20390;-67